createdAt,value
2018-05-23T00:00:45.091Z,96348
2018-05-23T00:03:13.973Z,96347
2018-05-23T00:05:43.661Z,96336
2018-05-23T00:08:12.541Z,96341
2018-05-23T00:10:42.180Z,96329
2018-05-23T00:13:11.076Z,96339
2018-05-23T00:15:39.983Z,96328
2018-05-23T00:18:09.628Z,96324
2018-05-23T00:20:38.504Z,96316
2018-05-23T00:23:07.403Z,96308
2018-05-23T00:37:30.136Z,96301
2018-05-23T00:39:59.025Z,96304
2018-05-23T00:42:27.953Z,96303
2018-05-23T00:44:56.832Z,96303
2018-05-23T00:47:25.707Z,96289
2018-05-23T00:49:54.619Z,96291
2018-05-23T00:52:23.498Z,96290
2018-05-23T00:55:10.155Z,96291
2018-05-23T00:57:39.033Z,96289
2018-05-23T01:00:07.909Z,96292
2018-05-23T01:02:36.803Z,96284
2018-05-23T01:05:05.682Z,96288
2018-05-23T01:07:34.596Z,96295
2018-05-23T01:10:03.510Z,96298
2018-05-23T01:12:32.388Z,96300
2018-05-23T01:15:01.288Z,96296
2018-05-23T01:17:30.166Z,96291
2018-05-23T01:19:59.081Z,96294
2018-05-23T01:22:27.975Z,96296
2018-05-23T01:24:56.868Z,96300
2018-05-23T01:27:26.555Z,96300
2018-05-23T01:29:55.434Z,96299
2018-05-23T01:32:25.132Z,96303
2018-05-23T01:34:54.027Z,96296
2018-05-23T01:37:22.986Z,96303
2018-05-23T01:39:51.867Z,96304
2018-05-23T01:42:20.746Z,96310
2018-05-23T01:44:49.652Z,96302
2018-05-23T01:47:19.292Z,96307
2018-05-23T01:49:48.190Z,96297
2018-05-23T01:52:17.071Z,96302
2018-05-23T01:54:45.948Z,96301
2018-05-23T01:57:15.632Z,96303
2018-05-23T01:59:44.513Z,96301
2018-05-23T02:02:13.403Z,96299
2018-05-23T02:04:43.088Z,96297
2018-05-23T02:07:12.727Z,96293
2018-05-23T02:09:41.623Z,96299
2018-05-23T02:12:11.285Z,96305
2018-05-23T02:14:40.164Z,96309
2018-05-23T02:17:09.063Z,96310
2018-05-23T02:19:37.968Z,96302
2018-05-23T02:22:07.632Z,96307
2018-05-23T02:24:36.532Z,96303
2018-05-23T02:27:05.432Z,96306
2018-05-23T02:29:34.301Z,96312
2018-05-23T02:32:03.995Z,96299
2018-05-23T02:34:32.867Z,96313
2018-05-23T02:37:02.508Z,96316
2018-05-23T02:39:31.437Z,96306
2018-05-23T02:42:01.080Z,96301
2018-05-23T02:44:29.959Z,96308
2018-05-23T02:46:58.873Z,96302
2018-05-23T02:49:28.523Z,96312
2018-05-23T02:51:57.397Z,96305
2018-05-23T02:54:26.317Z,96305
2018-05-23T02:56:55.977Z,96296
2018-05-23T02:59:24.858Z,96294
2018-05-23T03:01:53.751Z,96299
2018-05-23T03:04:23.425Z,96295
2018-05-23T03:06:52.307Z,96292
2018-05-23T03:09:21.183Z,96299
2018-05-23T03:11:50.080Z,96297
2018-05-23T03:14:19.719Z,96294
2018-05-23T03:16:49.429Z,96298
2018-05-23T03:19:18.307Z,96293
2018-05-23T03:21:47.176Z,96299
2018-05-23T03:24:16.082Z,96291
2018-05-23T03:26:44.985Z,96294
2018-05-23T03:29:13.899Z,96287
2018-05-23T03:31:42.774Z,96289
2018-05-23T03:34:11.647Z,96288
2018-05-23T03:36:40.559Z,96289
2018-05-23T03:39:10.211Z,96279
2018-05-23T03:41:39.092Z,96275
2018-05-23T03:44:08.017Z,96278
2018-05-23T03:46:36.903Z,96282
2018-05-23T03:49:05.780Z,96285
2018-05-23T03:51:34.759Z,96296
2018-05-23T03:54:04.019Z,96296
2018-05-23T03:56:34.275Z,96300
2018-05-23T03:59:03.189Z,96312
2018-05-23T04:01:50.792Z,96305
2018-05-23T04:04:37.525Z,96314
2018-05-23T04:10:14.511Z,96319
2018-05-23T04:12:43.415Z,96321
2018-05-23T04:15:12.296Z,96326
2018-05-23T04:17:41.167Z,96333
2018-05-23T04:20:10.061Z,96333
2018-05-23T04:22:39.715Z,96342
2018-05-23T04:25:08.609Z,96340
2018-05-23T04:27:37.484Z,96337
2018-05-23T04:30:06.411Z,96338
2018-05-23T04:32:35.289Z,96342
2018-05-23T04:35:04.168Z,96347
2018-05-23T04:37:33.067Z,96351
2018-05-23T04:40:01.959Z,96364
2018-05-23T04:42:30.858Z,96364
2018-05-23T04:45:00.516Z,96361
2018-05-23T04:47:29.403Z,96367
2018-05-23T04:49:58.280Z,96369
2018-05-23T04:52:27.173Z,96375
2018-05-23T04:54:56.868Z,96376
2018-05-23T04:57:26.512Z,96388
2018-05-23T04:59:55.381Z,96389
2018-05-23T05:02:24.275Z,96390
2018-05-23T05:04:53.159Z,96386
2018-05-23T05:07:22.041Z,96392
2018-05-23T05:09:51.717Z,96387
2018-05-23T05:12:20.624Z,96391
2018-05-23T05:14:50.256Z,96406
2018-05-23T05:17:19.128Z,96414
2018-05-23T05:19:48.023Z,96414
2018-05-23T05:22:16.935Z,96414
2018-05-23T05:24:46.579Z,96423
2018-05-23T05:27:15.447Z,96426
2018-05-23T05:29:44.339Z,96433
2018-05-23T05:32:13.975Z,96446
2018-05-23T05:34:43.643Z,96451
2018-05-23T05:37:12.512Z,96456
2018-05-23T05:39:41.375Z,96457
2018-05-23T05:42:10.272Z,96461
2018-05-23T05:44:39.153Z,96454
2018-05-23T05:47:08.028Z,96462
2018-05-23T05:49:37.690Z,96460
2018-05-23T05:52:06.563Z,96459
2018-05-23T05:54:35.471Z,96466
2018-05-23T05:57:04.351Z,96466
2018-05-23T05:59:33.987Z,96467
2018-05-23T06:02:02.900Z,96478
2018-05-23T06:04:31.782Z,96483
2018-05-23T06:07:00.656Z,96489
2018-05-23T06:09:29.625Z,96490
2018-05-23T06:11:58.472Z,96494
2018-05-23T06:14:27.341Z,96492
2018-05-23T06:16:56.231Z,96492
2018-05-23T06:19:25.127Z,96495
2018-05-23T06:21:54.019Z,96494
2018-05-23T06:24:23.658Z,96500
2018-05-23T06:26:52.551Z,96493
2018-05-23T06:29:21.422Z,96497
2018-05-23T06:31:50.327Z,96499
2018-05-23T06:34:19.199Z,96502
2018-05-23T06:36:48.074Z,96502
2018-05-23T06:39:16.983Z,96503
2018-05-23T06:41:45.857Z,96516
2018-05-23T06:44:14.732Z,96510
2018-05-23T06:46:43.647Z,96522
2018-05-23T06:49:12.514Z,96517
2018-05-23T06:51:41.383Z,96515
2018-05-23T06:54:10.279Z,96517
2018-05-23T06:56:39.196Z,96530
2018-05-23T06:59:08.832Z,96523
2018-05-23T07:01:37.703Z,96530
2018-05-23T07:04:06.593Z,96537
2018-05-23T07:06:36.207Z,96534
2018-05-23T07:09:05.859Z,96534
2018-05-23T07:11:34.755Z,96530
2018-05-23T07:14:03.645Z,96529
2018-05-23T07:16:32.542Z,96527
2018-05-23T07:19:02.187Z,96531
2018-05-23T07:21:31.059Z,96529
2018-05-23T07:23:59.981Z,96536
2018-05-23T07:26:29.624Z,96530
2018-05-23T07:28:58.499Z,96538
2018-05-23T07:31:27.436Z,96543
2018-05-23T07:33:56.318Z,96541
2018-05-23T07:36:25.193Z,96538
2018-05-23T07:38:54.083Z,96550
2018-05-23T07:41:22.962Z,96542
2018-05-23T07:43:51.858Z,96542
2018-05-23T07:46:20.752Z,96550
2018-05-23T07:48:49.631Z,96537
2018-05-23T07:51:18.553Z,96544
2018-05-23T07:53:47.428Z,96555
2018-05-23T07:56:16.305Z,96554
2018-05-23T07:58:45.200Z,96551
2018-05-23T08:01:14.076Z,96554
2018-05-23T08:03:42.969Z,96563
2018-05-23T08:06:11.871Z,96558
2018-05-23T08:08:41.511Z,96560
2018-05-23T08:11:10.380Z,96557
2018-05-23T08:13:39.272Z,96554
2018-05-23T08:16:08.143Z,96559
2018-05-23T08:18:37.035Z,96558
2018-05-23T08:21:05.924Z,96556
2018-05-23T08:23:34.795Z,96561
2018-05-23T08:26:03.692Z,96565
2018-05-23T08:28:33.328Z,96558
2018-05-23T08:31:02.204Z,96560
2018-05-23T08:33:31.128Z,96565
2018-05-23T08:36:00.771Z,96560
2018-05-23T08:38:29.663Z,96573
2018-05-23T08:40:58.541Z,96562
2018-05-23T08:43:27.415Z,96571
2018-05-23T08:45:56.378Z,96569
2018-05-23T08:48:25.223Z,96570
2018-05-23T08:50:54.097Z,96570
2018-05-23T08:53:22.988Z,96570
2018-05-23T08:55:51.866Z,96569
2018-05-23T08:58:20.783Z,96572
2018-05-23T09:00:49.651Z,96576
2018-05-23T09:03:18.518Z,96562
2018-05-23T09:05:47.410Z,96570
2018-05-23T09:08:17.044Z,96570
2018-05-23T09:10:45.983Z,96575
2018-05-23T09:13:15.636Z,96575
2018-05-23T09:15:44.521Z,96578
2018-05-23T09:18:13.429Z,96574
2018-05-23T09:20:43.082Z,96574
2018-05-23T09:23:11.963Z,96576
2018-05-23T09:25:40.857Z,96564
2018-05-23T09:28:09.727Z,96572
2018-05-23T09:30:38.604Z,96576
2018-05-23T09:33:07.504Z,96577
2018-05-23T09:35:36.374Z,96586
2018-05-23T09:38:05.286Z,96581
2018-05-23T09:40:34.159Z,96585
2018-05-23T09:43:03.028Z,96584
2018-05-23T09:45:31.925Z,96585
2018-05-23T09:48:00.803Z,96586
2018-05-23T09:50:29.711Z,96585
2018-05-23T09:52:59.351Z,96576
2018-05-23T09:55:28.227Z,96577
2018-05-23T09:57:57.132Z,96586
2018-05-23T10:00:26.003Z,96582
2018-05-23T10:02:54.870Z,96580
2018-05-23T10:05:23.783Z,96582
2018-05-23T10:07:53.424Z,96575
2018-05-23T10:10:22.303Z,96579
2018-05-23T10:12:51.308Z,96575
2018-05-23T10:15:20.128Z,96570
2018-05-23T10:17:49.027Z,96576
2018-05-23T10:20:17.912Z,96575
2018-05-23T10:22:46.812Z,96575
2018-05-23T10:25:16.491Z,96576
2018-05-23T10:27:45.364Z,96575
2018-05-23T10:30:14.234Z,96574
2018-05-23T10:32:43.133Z,96575
2018-05-23T10:35:12.818Z,96575
2018-05-23T10:37:41.698Z,96582
2018-05-23T10:40:11.344Z,96576
2018-05-23T10:42:40.262Z,96586
2018-05-23T10:45:09.144Z,96600
2018-05-23T10:47:38.799Z,96603
2018-05-23T10:50:07.730Z,96592
2018-05-23T10:52:36.612Z,96585
2018-05-23T10:55:05.496Z,96591
2018-05-23T10:57:35.413Z,96591
2018-05-23T11:00:04.338Z,96583
2018-05-23T11:02:33.998Z,96593
2018-05-23T11:05:03.677Z,96595
2018-05-23T11:07:32.558Z,96594
2018-05-23T11:10:01.468Z,96591
2018-05-23T11:12:31.103Z,96585
2018-05-23T11:15:00.001Z,96588
2018-05-23T11:17:28.896Z,96586
2018-05-23T11:19:57.771Z,96592
2018-05-23T11:22:26.671Z,96589
2018-05-23T11:24:56.318Z,96592
2018-05-23T11:27:25.212Z,96587
2018-05-23T11:29:54.110Z,96588
2018-05-23T11:32:23.767Z,96585
2018-05-23T11:34:52.663Z,96587
2018-05-23T11:37:21.631Z,96582
2018-05-23T11:39:50.483Z,96589
2018-05-23T11:42:19.356Z,96590
2018-05-23T11:44:48.248Z,96589
2018-05-23T11:47:17.121Z,96587
2018-05-23T11:49:46.017Z,96595
2018-05-23T11:52:15.677Z,96583
2018-05-23T11:54:44.705Z,96584
2018-05-23T11:57:13.502Z,96585
2018-05-23T11:59:42.373Z,96578
2018-05-23T12:02:11.263Z,96571
2018-05-23T12:04:40.180Z,96581
2018-05-23T12:07:09.072Z,96571
2018-05-23T12:09:38.711Z,96573
2018-05-23T12:12:07.611Z,96571
2018-05-23T12:14:36.489Z,96570
2018-05-23T12:17:05.420Z,96567
2018-05-23T12:19:34.371Z,96569
2018-05-23T12:22:03.194Z,96570
2018-05-23T12:24:32.101Z,96569
2018-05-23T12:27:00.988Z,96564
2018-05-23T12:29:30.632Z,96560
2018-05-23T12:31:59.526Z,96561
2018-05-23T12:34:28.415Z,96551
2018-05-23T12:36:57.302Z,96557
2018-05-23T12:39:27.840Z,96551
2018-05-23T12:41:56.744Z,96551
2018-05-23T12:44:25.618Z,96547
2018-05-23T12:46:54.487Z,96547
2018-05-23T12:49:23.401Z,96542
2018-05-23T12:51:52.273Z,96535
2018-05-23T12:54:21.939Z,96538
2018-05-23T12:56:50.857Z,96543
2018-05-23T12:59:20.524Z,96530
2018-05-23T13:01:49.418Z,96534
2018-05-23T13:04:19.082Z,96543
2018-05-23T13:06:47.948Z,96544
2018-05-23T13:09:16.848Z,96543
2018-05-23T13:11:45.723Z,96540
2018-05-23T13:14:14.620Z,96543
2018-05-23T13:16:44.297Z,96535
2018-05-23T13:19:13.163Z,96537
2018-05-23T13:21:42.035Z,96541
2018-05-23T13:24:10.950Z,96537
2018-05-23T13:26:39.823Z,96535
2018-05-23T13:29:08.691Z,96531
2018-05-23T13:31:37.607Z,96542
2018-05-23T13:34:06.474Z,96532
2018-05-23T13:36:36.184Z,96538
2018-05-23T13:39:06.019Z,96526
2018-05-23T13:41:35.659Z,96534
2018-05-23T13:44:04.549Z,96531
2018-05-23T13:46:33.469Z,96527
2018-05-23T13:49:03.108Z,96531
2018-05-23T13:51:32.069Z,96518
2018-05-23T13:54:00.968Z,96514
2018-05-23T13:56:29.836Z,96508
2018-05-23T13:58:59.477Z,96512
2018-05-23T14:01:28.477Z,96514
2018-05-23T14:03:57.348Z,96506
2018-05-23T14:06:26.223Z,96516
2018-05-23T14:08:55.119Z,96508
2018-05-23T14:11:23.988Z,96518
2018-05-23T14:13:52.856Z,96514
2018-05-23T14:16:21.751Z,96508
2018-05-23T14:18:50.650Z,96513
2018-05-23T14:21:19.559Z,96502
2018-05-23T14:23:49.196Z,96504
2018-05-23T14:26:18.073Z,96508
2018-05-23T14:28:46.964Z,96501
2018-05-23T14:31:15.845Z,96500
2018-05-23T14:33:44.748Z,96485
2018-05-23T14:36:14.401Z,96477
2018-05-23T14:38:43.268Z,96476
2018-05-23T14:41:12.222Z,96472
2018-05-23T14:43:41.262Z,96466
2018-05-23T14:46:10.005Z,96463
2018-05-23T14:48:38.895Z,96457
2018-05-23T14:51:07.781Z,96454
2018-05-23T14:53:37.483Z,96438
2018-05-23T14:56:07.122Z,96447
2018-05-23T14:58:36.021Z,96433
2018-05-23T15:01:04.925Z,96434
2018-05-23T15:03:34.567Z,96437
2018-05-23T15:06:03.471Z,96436
2018-05-23T15:08:32.348Z,96429
2018-05-23T15:11:01.999Z,96431
2018-05-23T15:13:30.920Z,96427
2018-05-23T15:16:00.562Z,96435
2018-05-23T15:18:29.435Z,96432
2018-05-23T15:20:58.344Z,96438
2018-05-23T15:23:28.720Z,96443
2018-05-23T15:25:57.611Z,96442
2018-05-23T15:28:26.479Z,96442
2018-05-23T15:30:55.370Z,96445
2018-05-23T15:33:24.260Z,96452
2018-05-23T15:35:53.133Z,96451
2018-05-23T15:38:22.038Z,96449
2018-05-23T15:40:51.667Z,96450
2018-05-23T15:43:20.535Z,96454
2018-05-23T15:45:49.447Z,96447
2018-05-23T15:48:18.320Z,96447
2018-05-23T15:50:47.188Z,96453
2018-05-23T15:53:16.084Z,96459
2018-05-23T15:55:44.963Z,96459
2018-05-23T15:58:14.614Z,96459
2018-05-23T16:00:43.512Z,96464
2018-05-23T16:03:12.391Z,96467
2018-05-23T16:05:41.260Z,96462
2018-05-23T16:08:10.149Z,96466
2018-05-23T16:10:39.062Z,96471
2018-05-23T16:13:08.015Z,96469
2018-05-23T16:15:37.654Z,96470
2018-05-23T16:18:06.559Z,96461
2018-05-23T16:20:35.545Z,96465
2018-05-23T16:23:04.360Z,96460
2018-05-23T16:25:33.247Z,96456
2018-05-23T16:28:02.121Z,96450
2018-05-23T16:30:31.048Z,96457
2018-05-23T16:33:00.686Z,96451
2018-05-23T16:35:29.587Z,96456
2018-05-23T16:37:58.475Z,96456
2018-05-23T16:40:27.347Z,96451
2018-05-23T16:42:56.243Z,96451
2018-05-23T16:45:25.891Z,96446
2018-05-23T16:47:54.772Z,96443
2018-05-23T16:50:23.669Z,96446
2018-05-23T16:52:52.926Z,96444
2018-05-23T16:55:21.803Z,96446
2018-05-23T16:57:50.699Z,96453
2018-05-23T17:00:19.615Z,96457
2018-05-23T17:02:48.489Z,96453
2018-05-23T17:05:17.363Z,96458
2018-05-23T17:07:46.254Z,96459
2018-05-23T17:10:15.123Z,96458
2018-05-23T17:12:44.040Z,96474
2018-05-23T17:15:12.916Z,96479
2018-05-23T17:17:41.791Z,96487
2018-05-23T17:20:10.696Z,96493
2018-05-23T17:22:40.327Z,96494
2018-05-23T17:25:09.195Z,96490
2018-05-23T17:27:38.091Z,96487
2018-05-23T17:30:06.964Z,96492
2018-05-23T17:32:35.836Z,96492
2018-05-23T17:35:04.750Z,96495
2018-05-23T17:37:34.391Z,96498
2018-05-23T17:40:03.311Z,96502
2018-05-23T17:42:32.185Z,96516
2018-05-23T17:45:01.062Z,96516
2018-05-23T17:47:29.955Z,96516
2018-05-23T17:49:59.598Z,96515
2018-05-23T17:52:28.488Z,96516
2018-05-23T17:54:57.359Z,96527
2018-05-23T17:57:26.271Z,96528
2018-05-23T17:59:55.915Z,96523
2018-05-23T18:02:24.811Z,96531
2018-05-23T18:04:53.698Z,96534
2018-05-23T18:07:22.569Z,96533
2018-05-23T18:09:51.467Z,96532
2018-05-23T18:12:21.104Z,96531
2018-05-23T18:14:49.978Z,96533
2018-05-23T18:17:18.869Z,96535
2018-05-23T18:19:47.788Z,96536
2018-05-23T18:22:17.463Z,96548
2018-05-23T18:24:47.113Z,96539
2018-05-23T18:27:15.985Z,96549
2018-05-23T18:29:44.955Z,96554
2018-05-23T18:32:14.560Z,96559
2018-05-23T18:34:43.459Z,96564
2018-05-23T18:37:12.338Z,96576
2018-05-23T18:39:41.241Z,96576
2018-05-23T18:42:10.127Z,96571
2018-05-23T18:44:39.003Z,96574
2018-05-23T18:47:07.896Z,96568
2018-05-23T18:49:36.796Z,96574
2018-05-23T18:52:05.724Z,96587
2018-05-23T18:54:34.685Z,96586
2018-05-23T18:57:03.500Z,96591
2018-05-23T18:59:32.427Z,96592
2018-05-23T19:02:02.079Z,96597
2018-05-23T19:04:30.956Z,96591
2018-05-23T19:06:59.880Z,96600
2018-05-23T19:09:28.758Z,96605
2018-05-23T19:11:57.635Z,96604
2018-05-23T19:14:26.539Z,96618
2018-05-23T19:16:55.414Z,96619
2018-05-23T19:19:24.287Z,96614
2018-05-23T19:21:53.190Z,96623
2018-05-23T19:24:22.071Z,96623
2018-05-23T19:26:50.977Z,96628
2018-05-23T19:29:19.855Z,96630
2018-05-23T19:31:48.767Z,96630
2018-05-23T19:34:17.658Z,96633
2018-05-23T19:36:46.579Z,96633
2018-05-23T19:39:15.459Z,96633
2018-05-23T19:41:44.342Z,96626
2018-05-23T19:44:13.264Z,96630
2018-05-23T19:46:42.163Z,96635
2018-05-23T19:49:11.808Z,96641
2018-05-23T19:51:40.719Z,96640
2018-05-23T19:54:09.604Z,96633
2018-05-23T19:56:39.308Z,96638
2018-05-23T19:59:08.179Z,96643
2018-05-23T20:01:37.830Z,96651
2018-05-23T20:04:06.715Z,96650
2018-05-23T20:06:35.644Z,96657
2018-05-23T20:09:07.337Z,96657
2018-05-23T20:11:36.260Z,96654
2018-05-23T20:14:05.201Z,96656
2018-05-23T20:16:34.250Z,96658
2018-05-23T20:19:03.190Z,96660
2018-05-23T20:21:32.868Z,96655
2018-05-23T20:24:02.504Z,96651
2018-05-23T20:26:31.404Z,96651
2018-05-23T20:29:00.288Z,96646
2018-05-23T20:31:29.203Z,96648
2018-05-23T20:33:58.079Z,96649
2018-05-23T20:36:26.957Z,96647
2018-05-23T20:38:55.852Z,96652
2018-05-23T20:41:24.735Z,96649
2018-05-23T20:43:53.636Z,96646
2018-05-23T20:46:22.521Z,96650
2018-05-23T20:48:52.179Z,96642
2018-05-23T20:51:21.100Z,96640
2018-05-23T20:53:50.740Z,96643
2018-05-23T20:56:19.647Z,96638
2018-05-23T20:58:48.605Z,96642
2018-05-23T21:01:17.423Z,96640
2018-05-23T21:03:46.736Z,96636
2018-05-23T21:06:15.620Z,96639
2018-05-23T21:08:44.547Z,96632
2018-05-23T21:11:14.192Z,96628
2018-05-23T21:13:43.877Z,96630
2018-05-23T21:16:12.747Z,96629
2018-05-23T21:18:41.620Z,96633
2018-05-23T21:21:10.516Z,96628
2018-05-23T21:23:39.394Z,96630
2018-05-23T21:26:08.267Z,96634
2018-05-23T21:28:37.166Z,96628
2018-05-23T21:31:06.076Z,96625
2018-05-23T21:33:34.955Z,96622
2018-05-23T21:36:03.877Z,96621
2018-05-23T21:38:32.754Z,96618
2018-05-23T21:41:01.645Z,96618
2018-05-23T21:43:30.541Z,96613
2018-05-23T21:45:59.411Z,96622
2018-05-23T21:48:29.070Z,96617
2018-05-23T21:50:57.977Z,96615
2018-05-23T21:53:27.643Z,96607
2018-05-23T21:55:56.544Z,96605
2018-05-23T21:58:28.136Z,96594
2018-05-23T22:00:57.011Z,96593
2018-05-23T22:03:25.911Z,96592
2018-05-23T22:05:54.791Z,96596
2018-05-23T22:08:23.689Z,96586
2018-05-23T22:10:53.329Z,96574
2018-05-23T22:13:22.236Z,96572
2018-05-23T22:15:51.107Z,96566
2018-05-23T22:18:20.044Z,96564
2018-05-23T22:20:48.922Z,96561
2018-05-23T22:23:17.796Z,96560
2018-05-23T22:25:46.672Z,96557
2018-05-23T22:28:15.568Z,96560
2018-05-23T22:30:44.450Z,96560
2018-05-23T22:33:14.106Z,96561
2018-05-23T22:35:43.015Z,96569
2018-05-23T22:38:12.751Z,96563
2018-05-23T22:40:41.623Z,96568
2018-05-23T22:43:10.519Z,96569
2018-05-23T22:45:39.391Z,96579
2018-05-23T22:48:08.293Z,96572
2018-05-23T22:50:37.932Z,96570
2018-05-23T22:53:06.826Z,96575
2018-05-23T22:55:35.747Z,96562
2018-05-23T22:58:04.620Z,96557
2018-05-23T23:00:33.527Z,96558
2018-05-23T23:03:03.360Z,96566
2018-05-23T23:05:32.241Z,96566
2018-05-23T23:08:01.143Z,96572
2018-05-23T23:10:30.019Z,96574
2018-05-23T23:12:59.728Z,96578
2018-05-23T23:15:28.604Z,96574
2018-05-23T23:17:57.480Z,96570
2018-05-23T23:20:27.140Z,96572
2018-05-23T23:22:56.018Z,96569
2018-05-23T23:25:24.934Z,96570
2018-05-23T23:27:54.598Z,96573
2018-05-23T23:30:23.471Z,96568
2018-05-23T23:32:52.372Z,96566
2018-05-23T23:35:22.023Z,96570
2018-05-23T23:37:50.940Z,96569
2018-05-23T23:40:20.582Z,96568
2018-05-23T23:42:49.460Z,96563
2018-05-23T23:45:18.359Z,96562
2018-05-23T23:47:47.232Z,96564
2018-05-23T23:50:16.145Z,96565
2018-05-23T23:52:45.020Z,96567
2018-05-23T23:55:13.894Z,96566
2018-05-23T23:57:42.808Z,96574
